Charlie Lake, Canada
Current Conditions -  °F | °C
As of 6:00 PM on Friday 24 Oct 2014 (Local Time) from CYXJ Reporting Station
Few Clouds Few Clouds  
Wind Chill: 36°   Ceiling: Unl
Heat Index: 41°   Visibility: 15mi
Dew Point: 32°   Wind: 7mph
Humidity: 70%   Direction: 240°WSW
Pressure: 29.9"   Gusts: NA
Location:  56.34°N, 121°W
Report Text: CYXJ 250000Z 24006KT 15SM FEW080 05/M00 A2990 RMK AC2 SLP157
Loading
Personal Weather Stations






























Interactive Weather Map
Tropical Storm Tracking
New forecast layout! Learn more

10-Day Weather Forecast

Advertisements
Track Severe Weather on mobile